sensor_id;sensor_type;location;lat;lon;timestamp;P1;durP1;ratioP1;P2;durP2;ratioP2
5295;SDS011;2670;42.720;23.336;2023-08-01T00:00:12;6.50;;;2.40;;
5295;SDS011;2670;42.720;23.336;2023-08-01T00:02:39;2.20;;;2.00;;
5295;SDS011;2670;42.720;23.336;2023-08-01T00:05:09;2.63;;;2.20;;
5295;SDS011;2670;42.720;23.336;2023-08-01T00:07:36;4.13;;;2.47;;
5295;SDS011;2670;42.720;23.336;2023-08-01T00:10:02;3.50;;;2.60;;
5295;SDS011;2670;42.720;23.336;2023-08-01T00:12:30;3.30;;;2.10;;
5295;SDS011;2670;42.720;23.336;2023-08-01T00:14:56;3.70;;;2.33;;
5295;SDS011;2670;42.720;23.336;2023-08-01T00:17:23;4.93;;;2.40;;
5295;SDS011;2670;42.720;23.336;2023-08-01T00:19:50;2.33;;;1.80;;
5295;SDS011;2670;42.720;23.336;2023-08-01T00:22:18;3.17;;;2.50;;
5295;SDS011;2670;42.720;23.336;2023-08-01T00:24:45;3.33;;;2.40;;
5295;SDS011;2670;42.720;23.336;2023-08-01T00:27:12;2.97;;;2.40;;
5295;SDS011;2670;42.720;23.336;2023-08-01T00:29:39;3.33;;;2.13;;
5295;SDS011;2670;42.720;23.336;2023-08-01T00:32:06;3.73;;;2.27;;
5295;SDS011;2670;42.720;23.336;2023-08-01T00:34:33;4.33;;;2.60;;
5295;SDS011;2670;42.720;23.336;2023-08-01T00:36:59;6.27;;;2.63;;
5295;SDS011;2670;42.720;23.336;2023-08-01T00:39:27;2.73;;;2.20;;
5295;SDS011;2670;42.720;23.336;2023-08-01T00:41:54;2.80;;;2.10;;
5295;SDS011;2670;42.720;23.336;2023-08-01T00:44:21;3.53;;;2.20;;
5295;SDS011;2670;42.720;23.336;2023-08-01T00:46:48;6.20;;;2.80;;
5295;SDS011;2670;42.720;23.336;2023-08-01T00:49:15;3.80;;;2.40;;
5295;SDS011;2670;42.720;23.336;2023-08-01T00:51:43;4.00;;;2.50;;
5295;SDS011;2670;42.720;23.336;2023-08-01T00:54:10;3.50;;;2.30;;
5295;SDS011;2670;42.720;23.336;2023-08-01T00:56:38;6.20;;;2.80;;
5295;SDS011;2670;42.720;23.336;2023-08-01T00:59:04;3.23;;;2.40;;
5295;SDS011;2670;42.720;23.336;2023-08-01T01:01:31;3.23;;;2.23;;
5295;SDS011;2670;42.720;23.336;2023-08-01T01:03:58;3.23;;;2.57;;
5295;SDS011;2670;42.720;23.336;2023-08-01T01:06:28;9.60;;;2.67;;
5295;SDS011;2670;42.720;23.336;2023-08-01T01:08:59;4.60;;;2.90;;
5295;SDS011;2670;42.720;23.336;2023-08-01T01:11:26;5.30;;;3.03;;
5295;SDS011;2670;42.720;23.336;2023-08-01T01:13:54;5.37;;;3.03;;
5295;SDS011;2670;42.720;23.336;2023-08-01T01:16:21;6.70;;;3.07;;
5295;SDS011;2670;42.720;23.336;2023-08-01T01:18:47;7.33;;;3.90;;
5295;SDS011;2670;42.720;23.336;2023-08-01T01:21:15;3.30;;;2.90;;
5295;SDS011;2670;42.720;23.336;2023-08-01T01:23:42;5.43;;;3.17;;
5295;SDS011;2670;42.720;23.336;2023-08-01T01:26:10;4.57;;;3.17;;
5295;SDS011;2670;42.720;23.336;2023-08-01T01:28:37;3.10;;;2.50;;
5295;SDS011;2670;42.720;23.336;2023-08-01T01:31:05;4.00;;;3.03;;
5295;SDS011;2670;42.720;23.336;2023-08-01T01:33:33;3.87;;;3.47;;
5295;SDS011;2670;42.720;23.336;2023-08-01T01:36:00;6.03;;;3.33;;
5295;SDS011;2670;42.720;23.336;2023-08-01T01:38:28;4.00;;;3.20;;
5295;SDS011;2670;42.720;23.336;2023-08-01T01:40:55;5.10;;;3.10;;
5295;SDS011;2670;42.720;23.336;2023-08-01T01:43:22;4.90;;;3.40;;
5295;SDS011;2670;42.720;23.336;2023-08-01T01:45:48;6.10;;;3.90;;
5295;SDS011;2670;42.720;23.336;2023-08-01T01:48:15;5.03;;;3.10;;
5295;SDS011;2670;42.720;23.336;2023-08-01T01:50:42;3.83;;;3.07;;
5295;SDS011;2670;42.720;23.336;2023-08-01T01:53:09;4.93;;;3.70;;
5295;SDS011;2670;42.720;23.336;2023-08-01T01:55:37;6.47;;;3.40;;
5295;SDS011;2670;42.720;23.336;2023-08-01T01:58:03;3.60;;;3.07;;
5295;SDS011;2670;42.720;23.336;2023-08-01T02:00:31;4.67;;;3.40;;
5295;SDS011;2670;42.720;23.336;2023-08-01T02:02:58;3.40;;;3.10;;
5295;SDS011;2670;42.720;23.336;2023-08-01T02:05:25;3.93;;;3.30;;
5295;SDS011;2670;42.720;23.336;2023-08-01T02:07:52;5.10;;;2.80;;
5295;SDS011;2670;42.720;23.336;2023-08-01T02:10:18;4.50;;;3.00;;
5295;SDS011;2670;42.720;23.336;2023-08-01T02:12:46;5.17;;;3.07;;
5295;SDS011;2670;42.720;23.336;2023-08-01T02:15:13;4.90;;;2.80;;
5295;SDS011;2670;42.720;23.336;2023-08-01T02:17:40;5.37;;;3.07;;
5295;SDS011;2670;42.720;23.336;2023-08-01T02:20:07;4.40;;;3.27;;
5295;SDS011;2670;42.720;23.336;2023-08-01T02:22:34;5.97;;;3.53;;
5295;SDS011;2670;42.720;23.336;2023-08-01T02:25:01;6.10;;;3.20;;
5295;SDS011;2670;42.720;23.336;2023-08-01T02:27:28;6.57;;;3.07;;
5295;SDS011;2670;42.720;23.336;2023-08-01T02:29:56;3.23;;;2.90;;
5295;SDS011;2670;42.720;23.336;2023-08-01T02:32:22;3.70;;;3.07;;
5295;SDS011;2670;42.720;23.336;2023-08-01T02:34:49;4.47;;;2.50;;
5295;SDS011;2670;42.720;23.336;2023-08-01T02:37:16;4.80;;;3.00;;
5295;SDS011;2670;42.720;23.336;2023-08-01T02:39:42;4.17;;;3.10;;
5295;SDS011;2670;42.720;23.336;2023-08-01T02:42:09;5.53;;;3.30;;
5295;SDS011;2670;42.720;23.336;2023-08-01T02:44:36;3.30;;;2.50;;
5295;SDS011;2670;42.720;23.336;2023-08-01T02:47:04;3.90;;;2.67;;
5295;SDS011;2670;42.720;23.336;2023-08-01T02:49:31;10.10;;;2.80;;
5295;SDS011;2670;42.720;23.336;2023-08-01T02:51:58;5.23;;;3.27;;
5295;SDS011;2670;42.720;23.336;2023-08-01T02:54:24;4.40;;;3.27;;
5295;SDS011;2670;42.720;23.336;2023-08-01T02:56:51;7.80;;;3.83;;
5295;SDS011;2670;42.720;23.336;2023-08-01T02:59:18;5.10;;;3.77;;
5295;SDS011;2670;42.720;23.336;2023-08-01T03:01:44;8.40;;;4.20;;
5295;SDS011;2670;42.720;23.336;2023-08-01T03:04:13;12.70;;;5.93;;
5295;SDS011;2670;42.720;23.336;2023-08-01T03:06:40;7.00;;;4.83;;
5295;SDS011;2670;42.720;23.336;2023-08-01T03:09:06;7.93;;;5.23;;
5295;SDS011;2670;42.720;23.336;2023-08-01T03:11:33;6.37;;;4.93;;
5295;SDS011;2670;42.720;23.336;2023-08-01T03:14:01;6.80;;;5.07;;
5295;SDS011;2670;42.720;23.336;2023-08-01T03:16:29;6.07;;;5.00;;
5295;SDS011;2670;42.720;23.336;2023-08-01T03:18:56;7.33;;;5.80;;
5295;SDS011;2670;42.720;23.336;2023-08-01T03:21:25;6.37;;;5.60;;
5295;SDS011;2670;42.720;23.336;2023-08-01T03:23:52;6.50;;;5.03;;
5295;SDS011;2670;42.720;23.336;2023-08-01T03:26:19;5.60;;;4.50;;
5295;SDS011;2670;42.720;23.336;2023-08-01T03:28:46;5.13;;;4.63;;
5295;SDS011;2670;42.720;23.336;2023-08-01T03:31:12;6.00;;;4.80;;
5295;SDS011;2670;42.720;23.336;2023-08-01T03:33:40;7.60;;;4.83;;
5295;SDS011;2670;42.720;23.336;2023-08-01T03:36:07;9.03;;;5.17;;
5295;SDS011;2670;42.720;23.336;2023-08-01T03:38:35;5.90;;;5.30;;
5295;SDS011;2670;42.720;23.336;2023-08-01T03:41:01;6.33;;;4.57;;
5295;SDS011;2670;42.720;23.336;2023-08-01T03:43:29;5.07;;;4.57;;
5295;SDS011;2670;42.720;23.336;2023-08-01T03:45:55;9.30;;;4.97;;
5295;SDS011;2670;42.720;23.336;2023-08-01T03:48:22;5.20;;;4.70;;
5295;SDS011;2670;42.720;23.336;2023-08-01T03:50:49;6.43;;;5.50;;
5295;SDS011;2670;42.720;23.336;2023-08-01T03:53:15;6.73;;;5.40;;
5295;SDS011;2670;42.720;23.336;2023-08-01T03:55:44;5.13;;;4.63;;
5295;SDS011;2670;42.720;23.336;2023-08-01T03:58:13;6.33;;;5.20;;
5295;SDS011;2670;42.720;23.336;2023-08-01T04:00:40;6.43;;;4.87;;
5295;SDS011;2670;42.720;23.336;2023-08-01T04:03:07;6.07;;;5.40;;
5295;SDS011;2670;42.720;23.336;2023-08-01T04:05:33;7.37;;;5.43;;
5295;SDS011;2670;42.720;23.336;2023-08-01T04:08:01;7.77;;;4.73;;
5295;SDS011;2670;42.720;23.336;2023-08-01T04:10:28;6.23;;;5.37;;
5295;SDS011;2670;42.720;23.336;2023-08-01T04:12:56;8.63;;;5.33;;
5295;SDS011;2670;42.720;23.336;2023-08-01T04:15:23;7.17;;;4.73;;
5295;SDS011;2670;42.720;23.336;2023-08-01T04:17:50;6.50;;;5.70;;
5295;SDS011;2670;42.720;23.336;2023-08-01T04:20:17;6.17;;;4.93;;
5295;SDS011;2670;42.720;23.336;2023-08-01T04:22:43;12.93;;;6.47;;
5295;SDS011;2670;42.720;23.336;2023-08-01T04:25:10;7.23;;;6.27;;
5295;SDS011;2670;42.720;23.336;2023-08-01T04:27:37;8.30;;;7.00;;
5295;SDS011;2670;42.720;23.336;2023-08-01T04:30:05;9.77;;;5.47;;
5295;SDS011;2670;42.720;23.336;2023-08-01T04:32:33;6.90;;;5.30;;
5295;SDS011;2670;42.720;23.336;2023-08-01T04:34:59;8.40;;;5.30;;
5295;SDS011;2670;42.720;23.336;2023-08-01T04:37:26;4.60;;;4.10;;
5295;SDS011;2670;42.720;23.336;2023-08-01T04:39:53;4.60;;;4.13;;
5295;SDS011;2670;42.720;23.336;2023-08-01T04:42:20;5.80;;;4.60;;
5295;SDS011;2670;42.720;23.336;2023-08-01T04:44:46;5.90;;;4.80;;
5295;SDS011;2670;42.720;23.336;2023-08-01T04:47:14;7.80;;;4.63;;
5295;SDS011;2670;42.720;23.336;2023-08-01T04:49:41;5.90;;;4.73;;
5295;SDS011;2670;42.720;23.336;2023-08-01T04:52:08;14.97;;;4.67;;
5295;SDS011;2670;42.720;23.336;2023-08-01T04:54:34;6.70;;;4.27;;
5295;SDS011;2670;42.720;23.336;2023-08-01T04:57:01;4.57;;;3.83;;
5295;SDS011;2670;42.720;23.336;2023-08-01T04:59:28;4.43;;;4.00;;
5295;SDS011;2670;42.720;23.336;2023-08-01T05:01:55;5.50;;;4.47;;
5295;SDS011;2670;42.720;23.336;2023-08-01T05:04:23;15.43;;;4.97;;
5295;SDS011;2670;42.720;23.336;2023-08-01T05:06:50;7.73;;;3.80;;
5295;SDS011;2670;42.720;23.336;2023-08-01T05:09:17;5.47;;;4.00;;
5295;SDS011;2670;42.720;23.336;2023-08-01T05:11:44;4.73;;;3.50;;
5295;SDS011;2670;42.720;23.336;2023-08-01T05:14:10;4.60;;;3.90;;
5295;SDS011;2670;42.720;23.336;2023-08-01T05:16:37;4.70;;;3.80;;
5295;SDS011;2670;42.720;23.336;2023-08-01T05:19:04;8.40;;;4.80;;
5295;SDS011;2670;42.720;23.336;2023-08-01T05:21:32;6.83;;;4.93;;
5295;SDS011;2670;42.720;23.336;2023-08-01T05:23:59;4.93;;;3.90;;
5295;SDS011;2670;42.720;23.336;2023-08-01T05:26:25;5.50;;;4.60;;
5295;SDS011;2670;42.720;23.336;2023-08-01T05:28:52;6.93;;;4.13;;
5295;SDS011;2670;42.720;23.336;2023-08-01T05:31:19;5.80;;;4.50;;
5295;SDS011;2670;42.720;23.336;2023-08-01T05:33:45;5.47;;;4.30;;
5295;SDS011;2670;42.720;23.336;2023-08-01T05:36:12;7.60;;;4.57;;
5295;SDS011;2670;42.720;23.336;2023-08-01T05:38:40;7.90;;;4.93;;
5295;SDS011;2670;42.720;23.336;2023-08-01T05:41:07;5.40;;;4.00;;
5295;SDS011;2670;42.720;23.336;2023-08-01T05:43:33;8.33;;;4.23;;
5295;SDS011;2670;42.720;23.336;2023-08-01T05:46:00;10.50;;;4.60;;
5295;SDS011;2670;42.720;23.336;2023-08-01T05:48:27;14.53;;;4.60;;
5295;SDS011;2670;42.720;23.336;2023-08-01T05:50:54;4.70;;;3.90;;
5295;SDS011;2670;42.720;23.336;2023-08-01T05:53:21;6.10;;;4.20;;
5295;SDS011;2670;42.720;23.336;2023-08-01T05:55:49;5.20;;;3.90;;
5295;SDS011;2670;42.720;23.336;2023-08-01T05:58:16;9.90;;;4.23;;
5295;SDS011;2670;42.720;23.336;2023-08-01T06:00:42;5.67;;;4.10;;
5295;SDS011;2670;42.720;23.336;2023-08-01T06:03:09;5.60;;;4.03;;
5295;SDS011;2670;42.720;23.336;2023-08-01T06:05:36;9.33;;;4.10;;
5295;SDS011;2670;42.720;23.336;2023-08-01T06:08:03;10.73;;;5.07;;
5295;SDS011;2670;42.720;23.336;2023-08-01T06:10:31;7.60;;;4.87;;
5295;SDS011;2670;42.720;23.336;2023-08-01T06:12:59;5.97;;;4.00;;
5295;SDS011;2670;42.720;23.336;2023-08-01T06:15:26;5.40;;;4.40;;
5295;SDS011;2670;42.720;23.336;2023-08-01T06:17:53;12.53;;;5.00;;
5295;SDS011;2670;42.720;23.336;2023-08-01T06:20:19;13.70;;;5.03;;
5295;SDS011;2670;42.720;23.336;2023-08-01T06:22:46;8.40;;;4.40;;
5295;SDS011;2670;42.720;23.336;2023-08-01T06:25:13;10.50;;;5.37;;
5295;SDS011;2670;42.720;23.336;2023-08-01T06:27:39;7.90;;;5.13;;
5295;SDS011;2670;42.720;23.336;2023-08-01T06:30:08;7.10;;;4.63;;
5295;SDS011;2670;42.720;23.336;2023-08-01T06:32:35;7.60;;;4.43;;
5295;SDS011;2670;42.720;23.336;2023-08-01T06:35:02;10.10;;;5.03;;
5295;SDS011;2670;42.720;23.336;2023-08-01T06:37:29;10.13;;;4.07;;
5295;SDS011;2670;42.720;23.336;2023-08-01T06:39:57;8.10;;;4.37;;
5295;SDS011;2670;42.720;23.336;2023-08-01T06:42:24;9.00;;;5.03;;
5295;SDS011;2670;42.720;23.336;2023-08-01T06:44:51;13.83;;;5.20;;
5295;SDS011;2670;42.720;23.336;2023-08-01T06:47:19;9.53;;;4.90;;
5295;SDS011;2670;42.720;23.336;2023-08-01T06:49:45;6.20;;;4.90;;
5295;SDS011;2670;42.720;23.336;2023-08-01T06:52:12;8.90;;;5.40;;
5295;SDS011;2670;42.720;23.336;2023-08-01T06:54:39;13.00;;;5.20;;
5295;SDS011;2670;42.720;23.336;2023-08-01T06:57:06;9.53;;;5.37;;
5295;SDS011;2670;42.720;23.336;2023-08-01T06:59:32;4.60;;;3.73;;
5295;SDS011;2670;42.720;23.336;2023-08-01T07:02:00;7.10;;;4.20;;
5295;SDS011;2670;42.720;23.336;2023-08-01T07:04:28;12.83;;;4.90;;
5295;SDS011;2670;42.720;23.336;2023-08-01T07:06:55;10.00;;;4.80;;
5295;SDS011;2670;42.720;23.336;2023-08-01T07:09:21;9.20;;;4.57;;
5295;SDS011;2670;42.720;23.336;2023-08-01T07:11:48;5.97;;;4.10;;
5295;SDS011;2670;42.720;23.336;2023-08-01T07:14:15;10.63;;;4.60;;
5295;SDS011;2670;42.720;23.336;2023-08-01T07:16:41;6.47;;;4.40;;
5295;SDS011;2670;42.720;23.336;2023-08-01T07:19:08;7.60;;;4.60;;
5295;SDS011;2670;42.720;23.336;2023-08-01T07:21:36;6.90;;;4.00;;
5295;SDS011;2670;42.720;23.336;2023-08-01T07:24:03;7.73;;;4.13;;
5295;SDS011;2670;42.720;23.336;2023-08-01T07:26:31;10.23;;;4.37;;
5295;SDS011;2670;42.720;23.336;2023-08-01T07:28:57;7.30;;;3.97;;
5295;SDS011;2670;42.720;23.336;2023-08-01T07:31:24;7.10;;;3.80;;
5295;SDS011;2670;42.720;23.336;2023-08-01T07:33:51;4.80;;;3.80;;
5295;SDS011;2670;42.720;23.336;2023-08-01T07:36:18;15.13;;;5.50;;
5295;SDS011;2670;42.720;23.336;2023-08-01T07:38:48;10.27;;;4.77;;
5295;SDS011;2670;42.720;23.336;2023-08-01T07:41:14;12.00;;;3.60;;
5295;SDS011;2670;42.720;23.336;2023-08-01T07:43:41;10.33;;;3.53;;
5295;SDS011;2670;42.720;23.336;2023-08-01T07:46:08;7.20;;;3.70;;
5295;SDS011;2670;42.720;23.336;2023-08-01T07:48:36;5.20;;;3.53;;
5295;SDS011;2670;42.720;23.336;2023-08-01T07:51:03;7.70;;;4.33;;
5295;SDS011;2670;42.720;23.336;2023-08-01T07:53:30;5.57;;;3.70;;
5295;SDS011;2670;42.720;23.336;2023-08-01T07:55:58;7.43;;;4.00;;
5295;SDS011;2670;42.720;23.336;2023-08-01T07:58:27;7.47;;;4.27;;
5295;SDS011;2670;42.720;23.336;2023-08-01T08:00:53;6.00;;;3.40;;
5295;SDS011;2670;42.720;23.336;2023-08-01T08:03:20;10.00;;;3.47;;
5295;SDS011;2670;42.720;23.336;2023-08-01T08:05:48;6.50;;;3.40;;
5295;SDS011;2670;42.720;23.336;2023-08-01T08:08:15;4.20;;;3.53;;
5295;SDS011;2670;42.720;23.336;2023-08-01T08:10:41;5.37;;;3.50;;
5295;SDS011;2670;42.720;23.336;2023-08-01T08:13:10;7.43;;;4.00;;
5295;SDS011;2670;42.720;23.336;2023-08-01T08:15:36;8.00;;;4.10;;
5295;SDS011;2670;42.720;23.336;2023-08-01T08:18:03;7.40;;;4.17;;
5295;SDS011;2670;42.720;23.336;2023-08-01T08:20:30;10.97;;;3.63;;
5295;SDS011;2670;42.720;23.336;2023-08-01T08:22:57;7.93;;;3.80;;
5295;SDS011;2670;42.720;23.336;2023-08-01T08:25:24;9.70;;;3.50;;
5295;SDS011;2670;42.720;23.336;2023-08-01T08:27:50;5.70;;;2.90;;
5295;SDS011;2670;42.720;23.336;2023-08-01T08:30:18;4.80;;;3.13;;
5295;SDS011;2670;42.720;23.336;2023-08-01T08:32:45;4.87;;;3.47;;
5295;SDS011;2670;42.720;23.336;2023-08-01T08:35:12;7.23;;;3.40;;
5295;SDS011;2670;42.720;23.336;2023-08-01T08:37:38;6.33;;;3.33;;
5295;SDS011;2670;42.720;23.336;2023-08-01T08:40:06;6.23;;;3.53;;
5295;SDS011;2670;42.720;23.336;2023-08-01T08:42:33;4.30;;;2.80;;
5295;SDS011;2670;42.720;23.336;2023-08-01T08:45:01;10.17;;;3.77;;
5295;SDS011;2670;42.720;23.336;2023-08-01T08:47:31;5.17;;;3.40;;
5295;SDS011;2670;42.720;23.336;2023-08-01T08:50:02;11.23;;;3.70;;
5295;SDS011;2670;42.720;23.336;2023-08-01T08:52:31;7.53;;;3.77;;
5295;SDS011;2670;42.720;23.336;2023-08-01T08:54:57;5.73;;;3.13;;
5295;SDS011;2670;42.720;23.336;2023-08-01T08:57:24;8.97;;;3.67;;
5295;SDS011;2670;42.720;23.336;2023-08-01T08:59:52;6.30;;;3.00;;
5295;SDS011;2670;42.720;23.336;2023-08-01T09:02:19;8.00;;;3.90;;
5295;SDS011;2670;42.720;23.336;2023-08-01T09:04:48;7.70;;;3.50;;
5295;SDS011;2670;42.720;23.336;2023-08-01T09:07:15;5.83;;;2.97;;
5295;SDS011;2670;42.720;23.336;2023-08-01T09:09:45;5.00;;;2.73;;
5295;SDS011;2670;42.720;23.336;2023-08-01T09:12:12;4.93;;;2.87;;
5295;SDS011;2670;42.720;23.336;2023-08-01T09:14:38;3.80;;;2.83;;
5295;SDS011;2670;42.720;23.336;2023-08-01T09:17:06;4.33;;;2.80;;
5295;SDS011;2670;42.720;23.336;2023-08-01T09:19:34;3.87;;;2.60;;
5295;SDS011;2670;42.720;23.336;2023-08-01T09:22:09;3.20;;;2.60;;
5295;SDS011;2670;42.720;23.336;2023-08-01T09:24:37;4.00;;;3.10;;
5295;SDS011;2670;42.720;23.336;2023-08-01T09:27:04;4.57;;;2.93;;
5295;SDS011;2670;42.720;23.336;2023-08-01T09:29:31;9.43;;;3.20;;
5295;SDS011;2670;42.720;23.336;2023-08-01T09:31:58;2.80;;;2.47;;
5295;SDS011;2670;42.720;23.336;2023-08-01T09:34:25;5.57;;;2.90;;
5295;SDS011;2670;42.720;23.336;2023-08-01T09:36:57;3.27;;;2.97;;
5295;SDS011;2670;42.720;23.336;2023-08-01T09:39:26;5.00;;;3.03;;
5295;SDS011;2670;42.720;23.336;2023-08-01T09:41:56;6.60;;;2.50;;
5295;SDS011;2670;42.720;23.336;2023-08-01T09:44:23;5.00;;;3.17;;
5295;SDS011;2670;42.720;23.336;2023-08-01T09:46:55;4.20;;;3.47;;
5295;SDS011;2670;42.720;23.336;2023-08-01T09:49:23;7.20;;;3.83;;
5295;SDS011;2670;42.720;23.336;2023-08-01T09:51:50;6.93;;;3.73;;
5295;SDS011;2670;42.720;23.336;2023-08-01T09:54:17;5.07;;;3.40;;
5295;SDS011;2670;42.720;23.336;2023-08-01T09:56:46;5.37;;;2.97;;
5295;SDS011;2670;42.720;23.336;2023-08-01T09:59:14;9.30;;;3.77;;
5295;SDS011;2670;42.720;23.336;2023-08-01T10:01:45;4.23;;;2.90;;
5295;SDS011;2670;42.720;23.336;2023-08-01T10:04:15;5.50;;;4.10;;
5295;SDS011;2670;42.720;23.336;2023-08-01T10:06:42;9.40;;;3.30;;
5295;SDS011;2670;42.720;23.336;2023-08-01T10:09:12;3.20;;;2.63;;
5295;SDS011;2670;42.720;23.336;2023-08-01T10:11:40;5.70;;;3.43;;
5295;SDS011;2670;42.720;23.336;2023-08-01T10:14:08;6.47;;;3.40;;
5295;SDS011;2670;42.720;23.336;2023-08-01T10:16:36;7.83;;;3.53;;
5295;SDS011;2670;42.720;23.336;2023-08-01T10:19:06;4.27;;;3.40;;
5295;SDS011;2670;42.720;23.336;2023-08-01T10:21:33;6.33;;;3.80;;
5295;SDS011;2670;42.720;23.336;2023-08-01T10:24:00;6.30;;;3.30;;
5295;SDS011;2670;42.720;23.336;2023-08-01T10:26:29;3.90;;;3.33;;
5295;SDS011;2670;42.720;23.336;2023-08-01T10:28:56;10.27;;;3.57;;
5295;SDS011;2670;42.720;23.336;2023-08-01T10:31:26;4.17;;;3.10;;
5295;SDS011;2670;42.720;23.336;2023-08-01T10:34:02;6.97;;;3.90;;
5295;SDS011;2670;42.720;23.336;2023-08-01T10:36:30;7.97;;;3.90;;
5295;SDS011;2670;42.720;23.336;2023-08-01T10:38:58;5.30;;;3.50;;
5295;SDS011;2670;42.720;23.336;2023-08-01T10:41:27;7.47;;;3.20;;
5295;SDS011;2670;42.720;23.336;2023-08-01T10:44:04;4.03;;;3.20;;
5295;SDS011;2670;42.720;23.336;2023-08-01T10:46:45;6.43;;;3.80;;
5295;SDS011;2670;42.720;23.336;2023-08-01T10:49:13;6.50;;;3.37;;
5295;SDS011;2670;42.720;23.336;2023-08-01T10:51:40;7.20;;;3.50;;
5295;SDS011;2670;42.720;23.336;2023-08-01T10:54:17;8.33;;;3.47;;
5295;SDS011;2670;42.720;23.336;2023-08-01T10:56:45;5.73;;;3.37;;
5295;SDS011;2670;42.720;23.336;2023-08-01T10:59:12;6.40;;;4.03;;
5295;SDS011;2670;42.720;23.336;2023-08-01T11:01:43;5.10;;;3.53;;
5295;SDS011;2670;42.720;23.336;2023-08-01T11:04:16;4.60;;;3.43;;
5295;SDS011;2670;42.720;23.336;2023-08-01T11:06:44;5.07;;;3.10;;
5295;SDS011;2670;42.720;23.336;2023-08-01T11:09:15;11.67;;;3.50;;
5295;SDS011;2670;42.720;23.336;2023-08-01T11:11:43;5.63;;;3.80;;
5295;SDS011;2670;42.720;23.336;2023-08-01T11:14:11;10.93;;;3.20;;
5295;SDS011;2670;42.720;23.336;2023-08-01T11:16:38;7.87;;;3.47;;
5295;SDS011;2670;42.720;23.336;2023-08-01T11:19:16;5.20;;;3.20;;
5295;SDS011;2670;42.720;23.336;2023-08-01T11:21:44;4.20;;;3.20;;
5295;SDS011;2670;42.720;23.336;2023-08-01T11:24:10;7.67;;;2.90;;
5295;SDS011;2670;42.720;23.336;2023-08-01T11:26:39;5.17;;;3.13;;
5295;SDS011;2670;42.720;23.336;2023-08-01T11:29:07;3.63;;;2.90;;
5295;SDS011;2670;42.720;23.336;2023-08-01T11:31:34;7.33;;;3.40;;
5295;SDS011;2670;42.720;23.336;2023-08-01T11:34:00;6.60;;;3.30;;
5295;SDS011;2670;42.720;23.336;2023-08-01T11:36:29;4.83;;;2.90;;
5295;SDS011;2670;42.720;23.336;2023-08-01T11:38:57;4.17;;;3.20;;
5295;SDS011;2670;42.720;23.336;2023-08-01T11:41:25;6.10;;;3.17;;
5295;SDS011;2670;42.720;23.336;2023-08-01T11:43:53;9.20;;;3.23;;
5295;SDS011;2670;42.720;23.336;2023-08-01T11:46:20;5.40;;;3.43;;
5295;SDS011;2670;42.720;23.336;2023-08-01T11:48:47;4.10;;;3.33;;
5295;SDS011;2670;42.720;23.336;2023-08-01T11:51:15;4.90;;;3.20;;
5295;SDS011;2670;42.720;23.336;2023-08-01T11:53:43;5.53;;;3.80;;
5295;SDS011;2670;42.720;23.336;2023-08-01T11:56:19;8.07;;;3.37;;
5295;SDS011;2670;42.720;23.336;2023-08-01T11:58:46;15.67;;;3.87;;
5295;SDS011;2670;42.720;23.336;2023-08-01T12:01:13;4.20;;;2.90;;
5295;SDS011;2670;42.720;23.336;2023-08-01T12:03:43;5.50;;;3.83;;
5295;SDS011;2670;42.720;23.336;2023-08-01T12:06:11;8.17;;;3.13;;
5295;SDS011;2670;42.720;23.336;2023-08-01T12:08:38;4.07;;;3.50;;
5295;SDS011;2670;42.720;23.336;2023-08-01T12:11:16;3.83;;;3.37;;
5295;SDS011;2670;42.720;23.336;2023-08-01T12:13:46;4.40;;;3.07;;
5295;SDS011;2670;42.720;23.336;2023-08-01T12:16:14;3.97;;;3.57;;
5295;SDS011;2670;42.720;23.336;2023-08-01T12:18:45;6.37;;;3.10;;
5295;SDS011;2670;42.720;23.336;2023-08-01T12:21:12;5.53;;;3.30;;
5295;SDS011;2670;42.720;23.336;2023-08-01T12:23:39;4.63;;;3.30;;
5295;SDS011;2670;42.720;23.336;2023-08-01T12:26:07;3.97;;;2.63;;
5295;SDS011;2670;42.720;23.336;2023-08-01T12:28:34;7.47;;;3.73;;
5295;SDS011;2670;42.720;23.336;2023-08-01T12:31:01;5.00;;;3.20;;
5295;SDS011;2670;42.720;23.336;2023-08-01T12:33:29;7.93;;;3.80;;
5295;SDS011;2670;42.720;23.336;2023-08-01T12:35:56;5.53;;;3.30;;
5295;SDS011;2670;42.720;23.336;2023-08-01T12:38:23;3.20;;;2.87;;
5295;SDS011;2670;42.720;23.336;2023-08-01T12:40:49;8.17;;;3.47;;
5295;SDS011;2670;42.720;23.336;2023-08-01T12:43:17;5.50;;;3.10;;
5295;SDS011;2670;42.720;23.336;2023-08-01T12:45:44;4.30;;;3.20;;
5295;SDS011;2670;42.720;23.336;2023-08-01T12:48:12;6.80;;;3.60;;
5295;SDS011;2670;42.720;23.336;2023-08-01T12:50:42;3.40;;;2.73;;
5295;SDS011;2670;42.720;23.336;2023-08-01T12:53:10;4.53;;;2.70;;
5295;SDS011;2670;42.720;23.336;2023-08-01T12:55:37;3.93;;;3.10;;
5295;SDS011;2670;42.720;23.336;2023-08-01T12:58:03;3.77;;;3.33;;
5295;SDS011;2670;42.720;23.336;2023-08-01T13:00:31;5.07;;;3.33;;
5295;SDS011;2670;42.720;23.336;2023-08-01T13:02:58;6.57;;;2.90;;
5295;SDS011;2670;42.720;23.336;2023-08-01T13:05:25;4.80;;;2.50;;
5295;SDS011;2670;42.720;23.336;2023-08-01T13:07:51;3.50;;;2.80;;
5295;SDS011;2670;42.720;23.336;2023-08-01T13:10:18;5.27;;;2.83;;
5295;SDS011;2670;42.720;23.336;2023-08-01T13:12:45;2.37;;;1.90;;
5295;SDS011;2670;42.720;23.336;2023-08-01T13:15:11;4.20;;;2.37;;
5295;SDS011;2670;42.720;23.336;2023-08-01T13:17:39;2.53;;;2.27;;
5295;SDS011;2670;42.720;23.336;2023-08-01T13:20:06;3.30;;;2.23;;
5295;SDS011;2670;42.720;23.336;2023-08-01T13:22:34;2.50;;;2.07;;
5295;SDS011;2670;42.720;23.336;2023-08-01T13:25:02;2.40;;;1.97;;
5295;SDS011;2670;42.720;23.336;2023-08-01T13:27:31;2.37;;;1.97;;
5295;SDS011;2670;42.720;23.336;2023-08-01T13:30:00;7.40;;;2.23;;
5295;SDS011;2670;42.720;23.336;2023-08-01T13:32:27;8.80;;;2.80;;
5295;SDS011;2670;42.720;23.336;2023-08-01T13:34:55;4.27;;;2.10;;
5295;SDS011;2670;42.720;23.336;2023-08-01T13:37:21;3.17;;;1.90;;
5295;SDS011;2670;42.720;23.336;2023-08-01T13:39:48;2.30;;;2.10;;
5295;SDS011;2670;42.720;23.336;2023-08-01T13:42:15;8.30;;;2.33;;
5295;SDS011;2670;42.720;23.336;2023-08-01T13:44:42;3.37;;;2.90;;
5295;SDS011;2670;42.720;23.336;2023-08-01T13:47:08;2.80;;;2.40;;
5295;SDS011;2670;42.720;23.336;2023-08-01T13:49:35;3.70;;;3.10;;
5295;SDS011;2670;42.720;23.336;2023-08-01T13:52:04;4.33;;;2.90;;
5295;SDS011;2670;42.720;23.336;2023-08-01T13:54:31;5.23;;;3.07;;
5295;SDS011;2670;42.720;23.336;2023-08-01T13:56:58;5.17;;;2.83;;
5295;SDS011;2670;42.720;23.336;2023-08-01T13:59:26;8.50;;;2.23;;
5295;SDS011;2670;42.720;23.336;2023-08-01T14:01:52;3.50;;;2.80;;
5295;SDS011;2670;42.720;23.336;2023-08-01T14:04:20;8.70;;;2.90;;
5295;SDS011;2670;42.720;23.336;2023-08-01T14:06:47;2.77;;;2.33;;
5295;SDS011;2670;42.720;23.336;2023-08-01T14:09:15;4.07;;;2.83;;
5295;SDS011;2670;42.720;23.336;2023-08-01T14:11:41;3.50;;;2.83;;
5295;SDS011;2670;42.720;23.336;2023-08-01T14:14:08;5.90;;;2.80;;
5295;SDS011;2670;42.720;23.336;2023-08-01T14:16:35;11.40;;;3.27;;
5295;SDS011;2670;42.720;23.336;2023-08-01T14:19:01;4.27;;;2.60;;
5295;SDS011;2670;42.720;23.336;2023-08-01T14:21:29;8.27;;;3.20;;
5295;SDS011;2670;42.720;23.336;2023-08-01T14:23:56;11.17;;;2.90;;
5295;SDS011;2670;42.720;23.336;2023-08-01T14:26:27;6.60;;;2.80;;
5295;SDS011;2670;42.720;23.336;2023-08-01T14:28:53;5.13;;;3.00;;
5295;SDS011;2670;42.720;23.336;2023-08-01T14:31:20;6.60;;;2.90;;
5295;SDS011;2670;42.720;23.336;2023-08-01T14:33:47;2.83;;;2.00;;
5295;SDS011;2670;42.720;23.336;2023-08-01T14:36:13;2.87;;;2.27;;
5295;SDS011;2670;42.720;23.336;2023-08-01T14:38:40;7.23;;;2.80;;
5295;SDS011;2670;42.720;23.336;2023-08-01T14:41:07;2.30;;;2.10;;
5295;SDS011;2670;42.720;23.336;2023-08-01T14:43:35;3.37;;;2.30;;
5295;SDS011;2670;42.720;23.336;2023-08-01T14:46:02;2.90;;;2.53;;
5295;SDS011;2670;42.720;23.336;2023-08-01T14:48:28;8.30;;;2.70;;
5295;SDS011;2670;42.720;23.336;2023-08-01T14:50:55;4.60;;;2.90;;
5295;SDS011;2670;42.720;23.336;2023-08-01T14:53:22;3.57;;;2.63;;
5295;SDS011;2670;42.720;23.336;2023-08-01T14:55:55;3.80;;;2.47;;
5295;SDS011;2670;42.720;23.336;2023-08-01T14:58:23;4.23;;;2.17;;
5295;SDS011;2670;42.720;23.336;2023-08-01T15:00:51;3.90;;;2.70;;